Time;durP1;ratioP1;P1;durP2;ratioP2;P2;SDS_P1;SDS_P2;PMS_P1;PMS_P2;Temp;Humidity;BMP_temperature;BMP_pressure;BME280_temperature;BME280_humidity;BME280_pressure;Samples;Min_cycle;Max_cycle;Signal;HPM_P1;HPM_P2
2022/10/17 00:00:59;;;;;;;;;;;15.30;99.90;;;;;;4962408;28;19930;-80
2022/10/17 00:03:26;;;;;;;;;;;15.30;99.90;;;;;;4960749;28;20659;-80
2022/10/17 00:05:53;;;;;;;;;;;15.30;99.90;;;;;;4960507;28;19942;-79
2022/10/17 00:08:20;;;;;;;;;;;15.30;99.90;;;;;;4956737;28;20440;-80
2022/10/17 00:10:55;;;;;;;;;;;15.20;99.90;;;;;;4959686;28;20381;-79
2022/10/17 00:13:23;;;;;;;;;;;15.20;99.90;;;;;;4962631;28;20316;-79
2022/10/17 00:15:50;;;;;;;;;;;15.20;99.90;;;;;;4960664;28;19930;-80
2022/10/17 00:18:17;;;;;;;;;;;15.20;99.90;;;;;;4959745;28;20021;-80
2022/10/17 00:20:44;;;;;;;;;;;15.20;99.90;;;;;;4958947;28;19926;-80
2022/10/17 00:23:11;;;;;;;;;;;15.30;99.90;;;;;;4967712;28;19934;-79
2022/10/17 00:25:37;;;;;;;;;;;15.20;99.90;;;;;;4962067;28;20754;-80
2022/10/17 00:28:04;;;;;;;;;;;15.10;99.90;;;;;;4963241;28;19934;-79
2022/10/17 00:30:32;;;;;;;;;;;15.10;99.90;;;;;;4973436;28;20427;-80
2022/10/17 00:32:59;;;;;;;;;;;15.10;99.90;;;;;;4970218;28;19926;-79
2022/10/17 00:35:26;;;;;;;;;;;15.10;99.90;;;;;;4959430;28;19977;-80
2022/10/17 00:37:53;;;;;;;;;;;15.10;99.90;;;;;;4955962;28;19929;-80
2022/10/17 00:40:20;;;;;;;;;;;15.10;99.90;;;;;;4954117;28;20352;-79
2022/10/17 00:42:47;;;;;;;;;;;15.00;99.90;;;;;;4961518;28;19977;-78
2022/10/17 00:45:16;;;;;;;;;;;15.10;99.90;;;;;;4962686;28;19926;-80
2022/10/17 00:47:47;;;;;;;;;;;15.00;99.90;;;;;;4953859;28;20013;-80
2022/10/17 00:50:14;;;;;;;;;;;15.00;99.90;;;;;;4956499;28;20443;-80
2022/10/17 00:52:41;;;;;;;;;;;15.00;99.90;;;;;;4973370;28;19930;-78
2022/10/17 00:55:10;;;;;;;;;;;15.00;99.90;;;;;;4954934;28;19930;-80
2022/10/17 00:57:38;;;;;;;;;;;15.00;99.90;;;;;;4972464;28;19942;-80
2022/10/17 01:00:06;;;;;;;;;;;15.00;99.90;;;;;;4958655;28;19926;-80
2022/10/17 01:02:35;;;;;;;;;;;14.90;99.90;;;;;;4972547;28;19932;-80
2022/10/17 01:05:03;;;;;;;;;;;14.90;99.90;;;;;;4953538;28;19938;-79
2022/10/17 01:07:31;;;;;;;;;;;14.90;99.90;;;;;;4956774;28;19937;-79
2022/10/17 01:09:58;;;;;;;;;;;14.90;99.90;;;;;;4956887;28;19926;-80
2022/10/17 01:12:29;;;;;;;;;;;14.90;99.90;;;;;;4952969;28;19970;-79
2022/10/17 01:15:02;;;;;;;;;;;14.90;99.90;;;;;;4973254;28;19949;-80
2022/10/17 01:17:32;;;;;;;;;;;14.80;99.90;;;;;;4948692;28;19997;-80
2022/10/17 01:20:15;;;;;;;;;;;14.80;99.90;;;;;;4958958;28;20001;-80
2022/10/17 01:22:46;;;;;;;;;;;14.80;99.90;;;;;;4970455;28;19944;-79
2022/10/17 01:25:23;;;;;;;;;;;14.80;99.90;;;;;;4956562;28;20039;-77
2022/10/17 01:28:01;;;;;;;;;;;14.80;99.90;;;;;;4976893;28;19964;-79
2022/10/17 01:30:52;;;;;;;;;;;14.80;99.90;;;;;;4958474;28;19981;-80
2022/10/17 01:33:28;;;;;;;;;;;14.70;99.90;;;;;;4956482;28;20025;-80
2022/10/17 01:35:56;;;;;;;;;;;14.70;99.90;;;;;;4977092;28;19926;-79
2022/10/17 01:38:26;;;;;;;;;;;14.80;99.90;;;;;;4962241;28;19926;-80
2022/10/17 01:40:56;;;;;;;;;;;14.70;99.90;;;;;;4977455;28;19926;-80
2022/10/17 01:43:24;;;;;;;;;;;14.70;99.90;;;;;;4971132;28;20001;-79
2022/10/17 01:45:53;;;;;;;;;;;14.70;99.90;;;;;;4955399;28;20032;-79
2022/10/17 01:48:23;;;;;;;;;;;14.70;99.90;;;;;;4965893;28;19926;-79
2022/10/17 01:50:51;;;;;;;;;;;14.70;99.90;;;;;;4960729;28;20012;-80
2022/10/17 01:53:19;;;;;;;;;;;14.70;99.90;;;;;;4975939;28;19926;-79
2022/10/17 01:55:47;;;;;;;;;;;14.60;99.90;;;;;;4978473;28;19933;-80
2022/10/17 01:58:21;;;;;;;;;;;14.60;99.90;;;;;;4958611;28;19930;-79
2022/10/17 02:00:48;;;;;;;;;;;14.60;99.90;;;;;;4978606;28;19936;-80
2022/10/17 02:03:17;;;;;;;;;;;14.60;99.90;;;;;;4960193;28;19933;-79
2022/10/17 02:05:45;;;;;;;;;;;14.60;99.90;;;;;;4963704;28;19926;-80
2022/10/17 02:08:13;;;;;;;;;;;14.60;99.90;;;;;;4960892;28;19934;-80
2022/10/17 02:10:42;;;;;;;;;;;14.50;99.90;;;;;;4965690;28;19934;-79
2022/10/17 02:13:13;;;;;;;;;;;14.50;99.90;;;;;;4961374;28;19930;-79
2022/10/17 02:15:57;;;;;;;;;;;14.50;99.90;;;;;;4958727;28;20309;-80
2022/10/17 02:18:34;;;;;;;;;;;14.50;99.90;;;;;;4963954;28;19926;-80
2022/10/17 02:21:04;;;;;;;;;;;14.50;99.90;;;;;;4964209;28;19926;-79
2022/10/17 02:23:42;;;;;;;;;;;14.50;99.90;;;;;;4959095;28;20016;-79
2022/10/17 02:26:11;;;;;;;;;;;14.40;99.90;;;;;;4967048;28;20353;-80
2022/10/17 02:28:41;;;;;;;;;;;14.50;99.90;;;;;;4964184;28;19926;-79
2022/10/17 02:31:10;;;;;;;;;;;14.40;99.90;;;;;;4964130;28;19958;-79
2022/10/17 02:33:39;;;;;;;;;;;14.40;99.90;;;;;;4961558;28;19926;-79
2022/10/17 02:36:11;;;;;;;;;;;14.40;99.90;;;;;;4965947;28;19988;-78
2022/10/17 02:38:38;;;;;;;;;;;14.30;99.90;;;;;;4979974;28;19969;-80
2022/10/17 02:41:06;;;;;;;;;;;14.30;99.90;;;;;;4955512;28;20217;-79
2022/10/17 02:43:34;;;;;;;;;;;14.30;99.90;;;;;;4963957;28;19930;-79
2022/10/17 02:46:01;;;;;;;;;;;14.30;99.90;;;;;;4963215;28;19934;-79
2022/10/17 02:48:32;;;;;;;;;;;14.30;99.90;;;;;;4965447;28;20506;-80
2022/10/17 02:51:02;;;;;;;;;;;14.30;99.90;;;;;;4977823;28;19974;-79
2022/10/17 02:53:34;;;;;;;;;;;14.20;99.90;;;;;;4980902;28;19945;-79
2022/10/17 02:56:05;;;;;;;;;;;14.20;99.90;;;;;;4983034;28;19940;-79
2022/10/17 02:58:33;;;;;;;;;;;14.20;99.90;;;;;;4958083;28;19957;-79
2022/10/17 03:01:01;;;;;;;;;;;14.20;99.90;;;;;;4965526;28;20009;-79
2022/10/17 03:03:29;;;;;;;;;;;14.20;99.90;;;;;;4982932;28;19926;-79
2022/10/17 03:06:00;;;;;;;;;;;14.20;99.90;;;;;;4966318;28;20344;-80
2022/10/17 03:08:27;;;;;;;;;;;14.20;99.90;;;;;;4963806;28;20197;-79
2022/10/17 03:10:57;;;;;;;;;;;14.10;99.90;;;;;;4967764;28;19941;-77
2022/10/17 03:13:26;;;;;;;;;;;14.10;99.90;;;;;;4947323;28;20283;-79
2022/10/17 03:15:53;;;;;;;;;;;14.10;99.90;;;;;;4979860;28;19926;-79
2022/10/17 03:18:20;;;;;;;;;;;14.10;99.90;;;;;;4959436;28;20013;-79
2022/10/17 03:20:49;;;;;;;;;;;14.10;99.90;;;;;;4964364;28;20345;-78
2022/10/17 03:23:16;;;;;;;;;;;14.10;99.90;;;;;;4964549;28;19954;-79
2022/10/17 03:25:43;;;;;;;;;;;14.00;99.90;;;;;;4960028;28;20444;-78
2022/10/17 03:28:13;;;;;;;;;;;;;;;;;;4960867;28;19926;-79
2022/10/17 03:30:41;;;;;;;;;;;14.00;99.90;;;;;;4963639;28;19948;-79
2022/10/17 03:33:09;;;;;;;;;;;14.00;99.90;;;;;;4962471;28;19970;-79
2022/10/17 03:35:38;;;;;;;;;;;14.00;99.90;;;;;;4958465;28;19926;-79
2022/10/17 03:38:05;;;;;;;;;;;14.00;99.90;;;;;;4961832;28;19926;-79
2022/10/17 03:40:32;;;;;;;;;;;14.00;99.90;;;;;;4975401;28;19930;-79
2022/10/17 03:42:59;;;;;;;;;;;14.00;99.90;;;;;;4959842;28;20017;-78
2022/10/17 03:45:26;;;;;;;;;;;13.90;99.90;;;;;;4955785;28;19930;-75
2022/10/17 03:47:54;;;;;;;;;;;13.90;99.90;;;;;;4959920;28;19953;-81
2022/10/17 03:50:21;;;;;;;;;;;13.90;99.90;;;;;;4956851;28;19930;-86
2022/10/17 03:52:49;;;;;;;;;;;13.90;99.90;;;;;;4960709;28;19988;-81
2022/10/17 03:55:16;;;;;;;;;;;13.90;99.90;;;;;;4966225;28;19934;-77
2022/10/17 03:57:43;;;;;;;;;;;13.80;99.90;;;;;;4971703;28;19953;-76
2022/10/17 04:00:11;;;;;;;;;;;13.80;99.90;;;;;;4967721;28;19934;-76
2022/10/17 04:02:43;;;;;;;;;;;13.80;99.90;;;;;;4956616;28;19941;-76
2022/10/17 04:05:17;;;;;;;;;;;13.80;99.90;;;;;;4955991;28;19934;-75
2022/10/17 04:07:44;;;;;;;;;;;13.80;99.90;;;;;;4961908;28;20459;-77
2022/10/17 04:10:12;;;;;;;;;;;13.80;99.90;;;;;;4958351;28;19949;-77
2022/10/17 04:12:39;;;;;;;;;;;13.80;99.90;;;;;;4954275;28;19934;-76
2022/10/17 04:15:06;;;;;;;;;;;;;;;;;;4958725;28;20344;-76
2022/10/17 04:17:33;;;;;;;;;;;13.70;99.90;;;;;;4980576;28;19930;-76
2022/10/17 04:20:00;;;;;;;;;;;13.60;99.90;;;;;;4963373;28;19976;-76
2022/10/17 04:22:28;;;;;;;;;;;13.60;99.90;;;;;;4977489;28;19993;-76
2022/10/17 04:24:55;;;;;;;;;;;13.60;99.90;;;;;;4963349;28;20389;-76
2022/10/17 04:27:34;;;;;;;;;;;13.60;99.90;;;;;;4981752;28;19926;-76
2022/10/17 04:30:01;;;;;;;;;;;13.60;99.90;;;;;;4963587;28;19998;-76
2022/10/17 04:32:35;;;;;;;;;;;13.60;99.90;;;;;;4962257;28;19934;-84
2022/10/17 04:35:09;;;;;;;;;;;13.60;99.90;;;;;;4960261;28;19934;-84
2022/10/17 04:37:37;;;;;;;;;;;13.60;99.90;;;;;;4978658;28;20431;-77
2022/10/17 04:40:14;;;;;;;;;;;13.50;99.90;;;;;;4975409;28;20044;-76
2022/10/17 04:42:40;;;;;;;;;;;13.60;99.90;;;;;;4961326;28;19940;-76
2022/10/17 04:45:09;;;;;;;;;;;13.50;99.90;;;;;;4955021;28;19962;-76
2022/10/17 04:47:37;;;;;;;;;;;13.50;99.90;;;;;;4960500;28;20029;-78
2022/10/17 04:50:05;;;;;;;;;;;13.50;99.90;;;;;;4965621;28;19977;-88
2022/10/17 04:52:36;;;;;;;;;;;13.50;99.90;;;;;;4968972;28;19977;-84
2022/10/17 04:55:05;;;;;;;;;;;13.50;99.90;;;;;;4959298;28;19940;-76
2022/10/17 04:57:34;;;;;;;;;;;13.40;99.90;;;;;;4959060;28;19938;-77
2022/10/17 05:00:10;;;;;;;;;;;13.40;99.90;;;;;;4957237;28;20333;-76
2022/10/17 05:03:09;;;;;;;;;;;13.40;99.90;;;;;;4959792;28;19927;-76
2022/10/17 05:05:37;;;;;;;;;;;13.40;99.90;;;;;;4969078;28;19996;-74
2022/10/17 05:08:04;;;;;;;;;;;13.40;99.90;;;;;;4948925;28;20218;-76
2022/10/17 05:10:37;;;;;;;;;;;13.40;99.90;;;;;;4961536;28;19937;-80
2022/10/17 05:13:04;;;;;;;;;;;;;;;;;;4962970;28;19950;-75
2022/10/17 05:15:33;;;;;;;;;;;13.30;99.90;;;;;;4958996;28;19926;-75
2022/10/17 05:18:01;;;;;;;;;;;;;;;;;;4954553;28;19938;-76
2022/10/17 05:20:29;;;;;;;;;;;13.40;99.90;;;;;;4966680;28;19941;-75
2022/10/17 05:22:58;;;;;;;;;;;13.30;99.90;;;;;;4956950;28;19933;-76
2022/10/17 05:25:28;;;;;;;;;;;13.30;99.90;;;;;;4960225;28;19931;-75
2022/10/17 05:27:57;;;;;;;;;;;13.30;99.90;;;;;;4964820;28;19943;-77
2022/10/17 05:30:24;;;;;;;;;;;13.30;99.90;;;;;;4963845;28;19976;-77
2022/10/17 05:32:55;;;;;;;;;;;13.30;99.90;;;;;;4964623;28;19933;-78
2022/10/17 05:35:22;;;;;;;;;;;13.20;99.90;;;;;;4970333;28;19930;-77
2022/10/17 05:37:49;;;;;;;;;;;13.20;99.90;;;;;;4978158;28;19934;-76
2022/10/17 05:40:17;;;;;;;;;;;13.10;99.90;;;;;;4963993;28;19949;-75
2022/10/17 05:42:47;;;;;;;;;;;13.10;99.90;;;;;;4966538;28;19934;-76
2022/10/17 05:45:16;;;;;;;;;;;13.00;99.90;;;;;;4964688;28;20021;-75
2022/10/17 05:47:43;;;;;;;;;;;13.00;99.90;;;;;;4968760;28;19930;-76
2022/10/17 05:50:10;;;;;;;;;;;13.00;99.90;;;;;;4983850;28;20013;-77
2022/10/17 05:52:55;;;;;;;;;;;13.00;99.90;;;;;;4967933;28;19971;-77
2022/10/17 05:55:22;;;;;;;;;;;13.00;99.90;;;;;;4964090;28;19926;-77
2022/10/17 05:57:51;;;;;;;;;;;12.90;99.90;;;;;;4967697;28;20319;-76
2022/10/17 06:00:20;;;;;;;;;;;12.90;99.90;;;;;;4966938;28;20360;-77
2022/10/17 06:02:54;;;;;;;;;;;12.90;99.90;;;;;;4979243;28;19930;-77
2022/10/17 06:05:22;;;;;;;;;;;12.90;99.90;;;;;;4965830;28;19930;-76
2022/10/17 06:07:51;;;;;;;;;;;12.90;99.90;;;;;;4967291;28;19961;-77
2022/10/17 06:10:19;;;;;;;;;;;12.90;99.90;;;;;;4969476;28;20020;-77
2022/10/17 06:12:46;;;;;;;;;;;12.90;99.90;;;;;;4965342;28;19977;-76
2022/10/17 06:15:14;;;;;;;;;;;12.80;99.90;;;;;;4964437;28;19953;-76
2022/10/17 06:17:45;;;;;;;;;;;12.80;99.90;;;;;;4965696;28;19930;-76
2022/10/17 06:20:13;;;;;;;;;;;12.80;99.90;;;;;;4963983;28;20626;-77
2022/10/17 06:22:40;;;;;;;;;;;12.80;99.90;;;;;;4968443;28;20281;-76
2022/10/17 06:25:12;;;;;;;;;;;12.80;99.90;;;;;;4966620;28;19934;-76
2022/10/17 06:27:39;;;;;;;;;;;12.80;99.90;;;;;;4980374;28;20431;-76
2022/10/17 06:30:07;;;;;;;;;;;12.80;99.90;;;;;;4968429;28;19926;-77
2022/10/17 06:32:33;;;;;;;;;;;12.80;99.90;;;;;;4967318;28;20380;-76
2022/10/17 06:35:03;;;;;;;;;;;12.70;99.90;;;;;;4967285;28;20056;-77
2022/10/17 06:37:30;;;;;;;;;;;12.70;99.90;;;;;;4976033;28;20389;-77
2022/10/17 06:39:57;;;;;;;;;;;12.70;99.90;;;;;;4964317;28;19926;-76
2022/10/17 06:42:25;;;;;;;;;;;12.70;99.90;;;;;;4964316;28;19937;-76
2022/10/17 06:45:07;;;;;;;;;;;12.70;99.90;;;;;;4959287;28;19969;-77
2022/10/17 06:47:41;;;;;;;;;;;12.70;99.90;;;;;;4968343;28;19949;-75
2022/10/17 06:50:28;;;;;;;;;;;12.70;99.90;;;;;;4968431;28;19926;-77
2022/10/17 06:53:07;;;;;;;;;;;12.70;99.90;;;;;;4958910;28;20029;-74
2022/10/17 06:56:04;;;;;;;;;;;12.70;99.90;;;;;;4961946;28;19934;-76
2022/10/17 06:58:40;;;;;;;;;;;12.60;99.90;;;;;;4964868;28;20931;-76
2022/10/17 07:01:30;;;;;;;;;;;12.80;99.90;;;;;;4960659;28;20076;-76
2022/10/17 07:03:59;;;;;;;;;;;12.70;99.90;;;;;;4967155;28;19949;-77
2022/10/17 07:06:29;;;;;;;;;;;12.60;99.90;;;;;;4981144;28;19984;-76
2022/10/17 07:09:01;;;;;;;;;;;12.60;99.90;;;;;;4983322;28;19933;-76
2022/10/17 07:11:28;;;;;;;;;;;12.60;99.90;;;;;;4961771;28;19973;-76
2022/10/17 07:13:55;;;;;;;;;;;12.70;99.90;;;;;;4968348;28;19997;-76
2022/10/17 07:16:22;;;;;;;;;;;12.60;99.90;;;;;;4965372;28;20025;-76
2022/10/17 07:18:55;;;;;;;;;;;12.60;99.90;;;;;;4964084;28;20009;-76
2022/10/17 07:21:22;;;;;;;;;;;12.60;99.90;;;;;;4962934;28;20412;-76
2022/10/17 07:23:51;;;;;;;;;;;12.60;99.90;;;;;;4964154;28;19926;-76
2022/10/17 07:26:18;;;;;;;;;;;12.60;99.90;;;;;;4966402;28;20353;-75
2022/10/17 07:28:47;;;;;;;;;;;12.60;99.90;;;;;;4966220;28;19926;-76
2022/10/17 07:31:30;;;;;;;;;;;12.60;99.90;;;;;;4962909;28;19926;-76
2022/10/17 07:33:59;;;;;;;;;;;12.60;99.90;;;;;;4967239;28;19935;-76
2022/10/17 07:36:25;;;;;;;;;;;12.60;99.90;;;;;;4963181;28;19926;-76
2022/10/17 07:38:54;;;;;;;;;;;12.60;99.90;;;;;;4966211;28;19930;-76
2022/10/17 07:41:21;;;;;;;;;;;12.50;99.90;;;;;;4964766;28;19926;-74
2022/10/17 07:43:48;;;;;;;;;;;12.50;99.90;;;;;;4960816;28;19930;-75
2022/10/17 07:46:19;;;;;;;;;;;12.50;99.90;;;;;;4962884;28;19949;-76
2022/10/17 07:48:46;;;;;;;;;;;12.50;99.90;;;;;;4964485;28;19932;-76
2022/10/17 07:51:13;;;;;;;;;;;12.50;99.90;;;;;;4964314;28;19926;-76
2022/10/17 07:53:41;;;;;;;;;;;12.50;99.90;;;;;;4968434;28;19961;-75
2022/10/17 07:56:10;;;;;;;;;;;12.50;99.90;;;;;;4960773;28;19938;-74
2022/10/17 07:58:37;;;;;;;;;;;12.50;99.90;;;;;;4967175;28;20021;-78
2022/10/17 08:01:05;;;;;;;;;;;12.50;99.90;;;;;;4958253;28;19932;-77
2022/10/17 08:03:32;;;;;;;;;;;12.50;99.90;;;;;;4967312;28;20388;-78
2022/10/17 08:05:59;;;;;;;;;;;12.50;99.90;;;;;;4954351;28;19926;-76
2022/10/17 08:08:25;;;;;;;;;;;12.50;99.90;;;;;;4964857;28;20020;-75
2022/10/17 08:10:52;;;;;;;;;;;12.50;99.90;;;;;;4963269;28;19930;-76
2022/10/17 08:13:21;;;;;;;;;;;12.50;99.90;;;;;;4960626;28;20131;-76
2022/10/17 08:15:48;;;;;;;;;;;12.50;99.90;;;;;;4966285;28;19936;-76
2022/10/17 08:18:16;;;;;;;;;;;12.50;99.90;;;;;;4964614;28;19969;-75
2022/10/17 08:20:43;;;;;;;;;;;12.50;99.90;;;;;;4958550;28;19972;-76
2022/10/17 08:23:10;;;;;;;;;;;12.50;99.90;;;;;;4981642;28;19930;-75
2022/10/17 08:25:38;;;;;;;;;;;12.50;99.90;;;;;;4967634;28;20171;-75
2022/10/17 08:28:05;;;;;;;;;;;12.50;99.90;;;;;;4958394;28;19940;-76
2022/10/17 08:30:33;;;;;;;;;;;12.50;99.90;;;;;;4961651;28;19972;-76
2022/10/17 08:33:00;;;;;;;;;;;12.50;99.90;;;;;;4967590;28;19941;-75
2022/10/17 08:35:27;;;;;;;;;;;12.50;99.90;;;;;;4963788;28;19992;-75
2022/10/17 08:37:53;;;;;;;;;;;12.50;99.90;;;;;;4965284;28;20040;-75
2022/10/17 08:40:22;;;;;;;;;;;12.50;99.90;;;;;;4965761;28;20013;-75
2022/10/17 08:43:02;;;;;;;;;;;12.50;99.90;;;;;;4962114;28;21870;-76
2022/10/17 08:45:30;;;;;;;;;;;12.50;99.90;;;;;;4958427;28;19934;-76
2022/10/17 08:48:00;;;;;;;;;;;12.50;99.90;;;;;;4963085;28;20000;-76
2022/10/17 08:50:30;;;;;;;;;;;12.50;99.90;;;;;;4965513;28;19958;-76
2022/10/17 08:52:59;;;;;;;;;;;12.60;99.90;;;;;;4958583;28;19966;-76
2022/10/17 08:55:29;;;;;;;;;;;12.60;99.90;;;;;;4966819;28;19969;-75
2022/10/17 08:57:56;;;;;;;;;;;12.50;99.90;;;;;;4984226;28;20381;-75
2022/10/17 09:00:23;;;;;;;;;;;12.60;99.90;;;;;;4962562;28;19926;-75
2022/10/17 09:02:54;;;;;;;;;;;12.60;99.90;;;;;;4980562;28;19926;-76
2022/10/17 09:05:26;;;;;;;;;;;12.60;99.90;;;;;;4970234;28;20030;-76
2022/10/17 09:07:56;;;;;;;;;;;12.60;99.90;;;;;;4971487;28;19969;-76
2022/10/17 09:10:28;;;;;;;;;;;12.60;99.90;;;;;;4964800;28;19969;-74
2022/10/17 09:13:02;;;;;;;;;;;12.60;99.90;;;;;;4970089;28;20381;-74
2022/10/17 09:15:37;;;;;;;;;;;12.70;99.90;;;;;;4968236;28;19929;-76
2022/10/17 09:18:09;;;;;;;;;;;12.70;99.90;;;;;;4960908;28;19937;-76
2022/10/17 09:20:40;;;;;;;;;;;12.70;99.90;;;;;;4968616;28;19930;-76
2022/10/17 09:23:15;;;;;;;;;;;12.70;99.90;;;;;;4968428;28;20416;-75
2022/10/17 09:25:43;;;;;;;;;;;12.70;99.90;;;;;;4964669;28;19950;-74
2022/10/17 09:28:13;;;;;;;;;;;12.80;99.90;;;;;;4959619;28;19927;-76
2022/10/17 09:30:42;;;;;;;;;;;12.70;99.90;;;;;;4967903;28;19966;-75
2022/10/17 09:33:11;;;;;;;;;;;12.70;99.90;;;;;;4960221;28;19926;-75
2022/10/17 09:35:40;;;;;;;;;;;12.80;99.90;;;;;;4963297;28;19933;-75
2022/10/17 09:38:11;;;;;;;;;;;12.90;99.90;;;;;;4968316;28;19957;-76
2022/10/17 09:40:40;;;;;;;;;;;12.80;99.90;;;;;;4964836;28;19981;-78
2022/10/17 09:43:07;;;;;;;;;;;12.80;99.90;;;;;;4958242;28;19927;-76
2022/10/17 09:45:42;;;;;;;;;;;12.80;99.90;;;;;;4962206;28;19980;-78
2022/10/17 09:48:13;;;;;;;;;;;12.80;99.90;;;;;;4967897;28;19926;-75
2022/10/17 09:50:41;;;;;;;;;;;12.80;99.90;;;;;;4965896;28;19965;-75
2022/10/17 09:53:12;;;;;;;;;;;12.90;99.90;;;;;;4970587;28;19933;-75
2022/10/17 09:55:41;;;;;;;;;;;12.90;99.90;;;;;;4967825;28;19926;-74
2022/10/17 09:58:08;;;;;;;;;;;12.90;99.90;;;;;;4961085;28;19933;-78
2022/10/17 10:00:37;;;;;;;;;;;12.90;99.90;;;;;;4966797;28;19927;-77
2022/10/17 10:03:11;;;;;;;;;;;12.90;99.90;;;;;;4979919;28;19934;-77
2022/10/17 10:05:37;;;;;;;;;;;13.00;99.90;;;;;;4967037;28;19982;-76
2022/10/17 10:08:12;;;;;;;;;;;13.00;99.90;;;;;;4962016;28;19926;-77
2022/10/17 10:10:41;;;;;;;;;;;13.00;99.90;;;;;;4967189;28;20013;-77
2022/10/17 10:13:17;;;;;;;;;;;13.00;99.90;;;;;;4965931;28;20022;-78
2022/10/17 10:15:44;;;;;;;;;;;13.00;99.90;;;;;;4980450;28;19934;-77
2022/10/17 10:18:27;;;;;;;;;;;13.00;99.90;;;;;;4960416;28;19973;-77
2022/10/17 10:21:03;;;;;;;;;;;13.00;99.90;;;;;;4961740;28;19960;-78
2022/10/17 10:23:31;;;;;;;;;;;13.10;99.90;;;;;;4968896;28;19933;-78
2022/10/17 10:25:59;;;;;;;;;;;13.10;99.90;;;;;;4963832;28;19986;-77
2022/10/17 10:28:27;;;;;;;;;;;13.10;99.90;;;;;;4982469;28;20694;-77
2022/10/17 10:30:54;;;;;;;;;;;13.10;99.90;;;;;;4965468;28;19926;-78
2022/10/17 10:33:23;;;;;;;;;;;13.10;99.90;;;;;;4968763;28;19958;-77
2022/10/17 10:35:55;;;;;;;;;;;13.10;99.90;;;;;;4963139;28;20020;-77
2022/10/17 10:38:22;;;;;;;;;;;13.10;99.90;;;;;;4958761;28;20021;-78
2022/10/17 10:40:51;;;;;;;;;;;13.20;99.90;;;;;;4965391;28;20480;-76
2022/10/17 10:43:22;;;;;;;;;;;13.20;99.90;;;;;;4967420;28;20017;-75
2022/10/17 10:45:50;;;;;;;;;;;13.20;99.90;;;;;;4965031;28;19933;-76
2022/10/17 10:48:21;;;;;;;;;;;13.20;99.90;;;;;;4960616;28;20361;-76
2022/10/17 10:50:50;;;;;;;;;;;13.30;99.90;;;;;;4964947;28;20297;-76
2022/10/17 10:53:25;;;;;;;;;;;13.30;99.90;;;;;;4968033;28;19930;-75
2022/10/17 10:55:54;;;;;;;;;;;13.40;99.90;;;;;;4968951;28;19992;-75
2022/10/17 10:58:28;;;;;;;;;;;13.30;99.90;;;;;;4961020;28;19926;-75
2022/10/17 11:00:56;;;;;;;;;;;13.40;99.90;;;;;;4956614;28;20001;-75
2022/10/17 11:03:26;;;;;;;;;;;13.40;99.90;;;;;;4963848;28;20296;-76
2022/10/17 11:05:56;;;;;;;;;;;13.50;99.90;;;;;;4969251;28;19936;-76
2022/10/17 11:08:26;;;;;;;;;;;13.40;99.90;;;;;;4959352;28;19960;-75
2022/10/17 11:11:00;;;;;;;;;;;13.50;99.90;;;;;;4962148;28;19984;-74
2022/10/17 11:13:28;;;;;;;;;;;13.50;99.90;;;;;;4966915;28;19990;-76
2022/10/17 11:15:57;;;;;;;;;;;13.50;99.90;;;;;;4965440;28;19926;-75
2022/10/17 11:18:26;;;;;;;;;;;13.50;99.90;;;;;;4964976;28;19933;-75
2022/10/17 11:20:56;;;;;;;;;;;13.60;99.90;;;;;;4963348;28;19984;-75
2022/10/17 11:23:24;;;;;;;;;;;13.60;99.90;;;;;;4969818;28;19926;-75
2022/10/17 11:25:52;;;;;;;;;;;13.60;99.90;;;;;;4962502;28;19934;-76
2022/10/17 11:28:23;;;;;;;;;;;13.70;99.90;;;;;;4961446;28;19930;-76
2022/10/17 11:30:52;;;;;;;;;;;13.70;99.90;;;;;;4966999;28;20222;-75
2022/10/17 11:33:24;;;;;;;;;;;13.70;99.90;;;;;;4964287;28;19926;-76
2022/10/17 11:35:52;;;;;;;;;;;13.70;99.90;;;;;;4959893;28;20407;-76
2022/10/17 11:38:22;;;;;;;;;;;13.80;99.90;;;;;;4963957;28;20024;-75
2022/10/17 11:40:50;;;;;;;;;;;13.80;99.90;;;;;;4967055;28;19933;-75
2022/10/17 11:43:19;;;;;;;;;;;13.80;99.90;;;;;;4959692;28;20253;-76
2022/10/17 11:45:49;;;;;;;;;;;13.90;99.90;;;;;;4965262;28;19926;-76
2022/10/17 11:48:20;;;;;;;;;;;13.90;99.90;;;;;;4968448;28;20682;-75
2022/10/17 11:50:49;;;;;;;;;;;13.90;99.90;;;;;;4958546;28;19965;-75
2022/10/17 11:53:17;;;;;;;;;;;13.90;99.90;;;;;;4962468;28;19973;-76
2022/10/17 11:55:44;;;;;;;;;;;14.00;99.90;;;;;;4960958;28;19926;-76
2022/10/17 11:58:16;;;;;;;;;;;14.00;99.90;;;;;;4958203;28;20009;-75
2022/10/17 12:00:52;;;;;;;;;;;14.10;99.90;;;;;;4957863;28;19980;-75
2022/10/17 12:03:25;;;;;;;;;;;14.10;99.90;;;;;;4964908;28;19926;-76
2022/10/17 12:05:56;;;;;;;;;;;14.10;99.90;;;;;;4966194;28;19934;-75
2022/10/17 12:08:25;;;;;;;;;;;14.20;99.90;;;;;;4964800;28;19930;-76
2022/10/17 12:10:55;;;;;;;;;;;14.20;99.90;;;;;;4960852;28;19930;-75
2022/10/17 12:13:40;;;;;;;;;;;14.20;99.90;;;;;;4964708;28;19981;-76
2022/10/17 12:16:25;;;;;;;;;;;14.30;99.90;;;;;;4949618;28;20006;-74
2022/10/17 12:19:11;;;;;;;;;;;14.30;99.90;;;;;;4967747;28;19980;-75
2022/10/17 12:24:37;;;;;;;;;;;14.40;99.90;;;;;;5136945;27;19924;-76
2022/10/17 12:27:18;;;;;;;;;;;14.50;99.90;;;;;;5106471;28;19931;-77
2022/10/17 12:29:47;;;;;;;;;;;14.50;99.90;;;;;;5094123;28;19967;-77
2022/10/17 12:32:14;;;;;;;;;;;14.60;99.90;;;;;;5093278;28;20378;-77
2022/10/17 12:34:50;;;;;;;;;;;14.60;99.90;;;;;;5101321;28;20062;-77
2022/10/17 12:37:47;;;;;;;;;;;14.70;99.90;;;;;;5102022;28;19928;-77
2022/10/17 12:40:28;;;;;;;;;;;14.80;99.90;;;;;;5095072;28;20014;-77
2022/10/17 12:42:56;;;;;;;;;;;14.80;99.90;;;;;;5100135;28;20005;-76
2022/10/17 12:45:42;;;;;;;;;;;14.90;99.90;;;;;;5102871;28;19938;-76
2022/10/17 12:48:09;;;;;;;;;;;14.90;99.90;;;;;;5097681;28;19931;-77
2022/10/17 12:50:36;;;;;;;;;;;;;;;;;;5096215;27;19955;-77
2022/10/17 12:53:06;;;;;;;;;;;15.00;99.90;;;;;;5097787;28;20367;-77
2022/10/17 12:55:33;;;;;;;;;;;15.10;99.90;;;;;;5097924;28;20458;-78
2022/10/17 12:58:02;;;;;;;;;;;15.10;99.90;;;;;;5100746;28;19930;-77
2022/10/17 13:00:33;;;;;;;;;;;15.10;99.90;;;;;;5098248;28;20020;-77
2022/10/17 13:03:05;;;;;;;;;;;15.20;99.90;;;;;;5104800;28;20398;-77
2022/10/17 13:05:33;;;;;;;;;;;15.20;99.90;;;;;;5104383;28;19939;-77
2022/10/17 13:08:00;;;;;;;;;;;15.20;99.90;;;;;;5101614;28;19934;-77
2022/10/17 13:10:28;;;;;;;;;;;15.30;99.90;;;;;;5101357;28;19950;-77
2022/10/17 13:13:00;;;;;;;;;;;15.40;99.90;;;;;;5108375;28;20498;-77
2022/10/17 13:15:28;;;;;;;;;;;15.40;99.90;;;;;;5105365;28;19934;-77
2022/10/17 13:17:56;;;;;;;;;;;15.40;99.90;;;;;;5099394;28;19930;-76
2022/10/17 13:20:24;;;;;;;;;;;15.50;99.90;;;;;;5102829;28;20242;-77
2022/10/17 13:22:51;;;;;;;;;;;15.50;99.90;;;;;;5103415;28;19924;-77
2022/10/17 13:25:19;;;;;;;;;;;15.50;99.90;;;;;;5102037;28;19928;-77
2022/10/17 13:27:46;;;;;;;;;;;15.60;99.90;;;;;;5100287;28;19924;-77
2022/10/17 13:30:24;;;;;;;;;;;15.70;99.90;;;;;;5098099;28;19928;-77
2022/10/17 13:32:53;;;;;;;;;;;15.70;99.90;;;;;;5095133;28;20002;-77
2022/10/17 13:35:25;;;;;;;;;;;15.70;99.90;;;;;;5081513;28;19990;-76
2022/10/17 13:37:52;;;;;;;;;;;15.70;99.90;;;;;;5085075;28;20460;-77
2022/10/17 13:40:20;;;;;;;;;;;15.80;99.90;;;;;;5096171;28;20349;-77
2022/10/17 13:42:47;;;;;;;;;;;15.80;99.90;;;;;;5080896;28;19924;-76
2022/10/17 13:45:18;;;;;;;;;;;15.80;99.90;;;;;;5085580;28;19924;-76
2022/10/17 13:47:46;;;;;;;;;;;15.90;99.90;;;;;;5088453;28;19924;-77
2022/10/17 13:50:30;;;;;;;;;;;16.00;99.90;;;;;;5060548;28;19929;-77
2022/10/17 13:53:14;;;;;;;;;;;16.10;99.90;;;;;;5068050;28;19925;-77
2022/10/17 13:55:50;;;;;;;;;;;16.40;99.90;;;;;;5077074;28;20005;-76
2022/10/17 13:58:17;;;;;;;;;;;16.40;99.90;;;;;;5074252;28;19932;-78
2022/10/17 14:00:44;;;;;;;;;;;16.40;99.90;;;;;;5069804;28;19932;-76
2022/10/17 14:03:11;;;;;;;;;;;16.40;99.90;;;;;;5071518;28;19981;-77
2022/10/17 14:05:53;;;;;;;;;;;16.50;99.90;;;;;;5079062;28;19923;-78
2022/10/17 14:08:21;;;;;;;;;;;16.40;99.90;;;;;;5075314;28;19928;-76
2022/10/17 14:10:48;;;;;;;;;;;16.50;99.90;;;;;;5078304;28;19930;-76
2022/10/17 14:13:19;;;;;;;;;;;16.50;99.90;;;;;;5072762;28;19932;-77
2022/10/17 14:15:46;;;;;;;;;;;16.60;99.90;;;;;;5077053;28;19971;-77
2022/10/17 14:18:16;;;;;;;;;;;16.70;99.90;;;;;;5068265;28;20092;-75
2022/10/17 14:20:46;;;;;;;;;;;16.80;99.90;;;;;;5072786;28;19947;-87
2022/10/17 14:23:29;;;;;;;;;;;16.80;99.90;;;;;;5079231;28;19963;-76
2022/10/17 14:26:04;;;;;;;;;;;16.80;99.90;;;;;;5068046;28;20442;-76
2022/10/17 14:28:31;;;;;;;;;;;16.90;99.90;;;;;;5076630;28;19925;-76
2022/10/17 14:31:10;;;;;;;;;;;17.10;99.90;;;;;;5081459;28;19924;-76
2022/10/17 14:33:36;;;;;;;;;;;17.00;99.90;;;;;;5073585;28;20007;-75
2022/10/17 14:36:04;;;;;;;;;;;17.00;99.90;;;;;;5074497;28;19939;-76
2022/10/17 14:38:34;;;;;;;;;;;17.00;99.90;;;;;;5084986;28;19932;-75